createdAt,value
2022-11-27T00:01:24.124Z,1.64
2022-11-27T00:03:51.168Z,1.64
2022-11-27T00:06:21.403Z,1.60
2022-11-27T00:08:48.910Z,1.50
2022-11-27T00:11:21.165Z,1.39
2022-11-27T00:13:48.650Z,1.36
2022-11-27T00:16:16.639Z,1.30
2022-11-27T00:18:44.019Z,1.26
2022-11-27T00:21:22.290Z,1.24
2022-11-27T00:23:49.637Z,1.23
2022-11-27T00:26:16.301Z,1.23
2022-11-27T00:28:43.580Z,1.24
2022-11-27T00:31:16.299Z,1.28
2022-11-27T00:33:43.144Z,1.29
2022-11-27T00:36:10.534Z,1.28
2022-11-27T00:38:39.181Z,1.27
2022-11-27T00:41:11.655Z,1.19
2022-11-27T00:43:44.632Z,1.27
2022-11-27T00:46:16.609Z,1.31
2022-11-27T00:48:44.461Z,1.37
2022-11-27T00:51:15.046Z,1.44
2022-11-27T00:53:42.394Z,1.49
2022-11-27T00:56:10.103Z,1.48
2022-11-27T00:58:36.560Z,1.52
2022-11-27T01:01:06.198Z,1.55
2022-11-27T01:03:33.854Z,1.58
2022-11-27T01:06:07.199Z,1.61
2022-11-27T01:08:34.741Z,1.59
2022-11-27T01:11:02.444Z,1.56
2022-11-27T01:13:33.002Z,1.55
2022-11-27T01:16:04.100Z,1.57
2022-11-27T01:18:31.921Z,1.54
2022-11-27T01:20:58.865Z,1.55
2022-11-27T01:23:26.505Z,1.51
2022-11-27T01:25:55.992Z,1.49
2022-11-27T01:28:24.476Z,1.50
2022-11-27T01:30:52.269Z,1.51
2022-11-27T01:33:19.949Z,1.46
2022-11-27T01:35:57.241Z,1.51
2022-11-27T01:38:25.043Z,1.48
2022-11-27T01:41:02.791Z,1.46
2022-11-27T01:43:54.061Z,1.32
2022-11-27T01:46:23.893Z,1.29
2022-11-27T01:48:53.431Z,1.20
2022-11-27T01:51:22.349Z,1.08
2022-11-27T01:53:49.884Z,0.98
2022-11-27T01:56:16.352Z,0.78
2022-11-27T01:58:42.971Z,0.67
2022-11-27T02:01:10.045Z,0.52
2022-11-27T02:03:36.998Z,0.49
2022-11-27T02:06:03.713Z,0.42
2022-11-27T02:08:30.302Z,0.28
2022-11-27T02:11:06.088Z,0.15
2022-11-27T02:13:40.851Z,0.10
2022-11-27T02:16:27.375Z,0.04
2022-11-27T02:19:11.091Z,0.02
2022-11-27T02:21:59.769Z,-0.04
2022-11-27T02:24:44.497Z,-0.07
2022-11-27T02:27:44.622Z,-0.14
2022-11-27T02:30:11.552Z,-0.25
2022-11-27T02:33:01.394Z,-0.28
2022-11-27T02:35:39.455Z,-0.30
2022-11-27T02:38:25.022Z,-0.33
2022-11-27T02:40:58.257Z,-0.40
2022-11-27T02:43:33.248Z,-0.52
2022-11-27T02:46:02.144Z,-0.58
2022-11-27T02:48:34.171Z,-0.61
2022-11-27T02:51:03.399Z,-0.65
2022-11-27T02:53:37.759Z,-0.68
2022-11-27T02:56:12.768Z,-0.74
2022-11-27T02:58:41.038Z,-0.78
2022-11-27T03:01:09.917Z,-0.77
2022-11-27T03:03:41.962Z,-0.73
2022-11-27T03:06:13.492Z,-0.72
2022-11-27T03:09:05.866Z,-0.79
2022-11-27T03:11:32.521Z,-0.89
2022-11-27T03:14:07.072Z,-0.96
2022-11-27T03:16:48.236Z,-1.00
2022-11-27T03:19:41.150Z,-1.02
2022-11-27T03:22:08.920Z,-1.04
2022-11-27T03:24:36.097Z,-1.02
2022-11-27T03:27:03.835Z,-1.05
2022-11-27T03:29:40.370Z,-0.99
2022-11-27T03:32:07.492Z,-0.96
2022-11-27T03:34:34.900Z,-1.03
2022-11-27T03:37:04.929Z,-1.04
2022-11-27T03:39:34.638Z,-1.12
2022-11-27T03:42:22.823Z,-1.20
2022-11-27T03:45:13.993Z,-1.26
2022-11-27T03:48:02.298Z,-1.27
2022-11-27T03:50:56.665Z,-1.27
2022-11-27T03:53:26.228Z,-1.30
2022-11-27T03:56:05.438Z,-1.30
2022-11-27T03:58:36.923Z,-1.32
2022-11-27T04:01:06.450Z,-1.31
2022-11-27T04:03:35.961Z,-1.33
2022-11-27T04:06:03.040Z,-1.42
2022-11-27T04:08:29.519Z,-1.45
2022-11-27T04:10:56.012Z,-1.48
2022-11-27T04:13:22.549Z,-1.46
2022-11-27T04:15:49.115Z,-1.45
2022-11-27T04:18:15.613Z,-1.42
2022-11-27T04:20:42.110Z,-1.41
2022-11-27T04:23:08.493Z,-1.37
2022-11-27T04:25:34.958Z,-1.33
2022-11-27T04:28:01.627Z,-1.33
2022-11-27T04:30:28.050Z,-1.32
2022-11-27T04:32:54.487Z,-1.36
2022-11-27T04:35:20.933Z,-1.35
2022-11-27T04:37:47.347Z,-1.33
2022-11-27T04:40:14.131Z,-1.37
2022-11-27T04:42:40.575Z,-1.38
2022-11-27T04:45:07.302Z,-1.32
2022-11-27T04:47:33.716Z,-1.41
2022-11-27T04:50:00.215Z,-1.42
2022-11-27T04:52:26.755Z,-1.41
2022-11-27T04:54:58.327Z,-1.42
2022-11-27T04:57:26.416Z,-1.45
2022-11-27T04:59:52.812Z,-1.44
2022-11-27T05:02:19.330Z,-1.52
2022-11-27T05:04:45.733Z,-1.56
2022-11-27T05:07:12.205Z,-1.58
2022-11-27T05:09:38.590Z,-1.60
2022-11-27T05:12:05.187Z,-1.60
2022-11-27T05:14:31.735Z,-1.59
2022-11-27T05:16:59.499Z,-1.56
2022-11-27T05:19:29.133Z,-1.55
2022-11-27T05:21:56.647Z,-1.58
2022-11-27T05:24:25.761Z,-1.55
2022-11-27T05:26:52.829Z,-1.50
2022-11-27T05:29:20.273Z,-1.49
2022-11-27T05:31:47.216Z,-1.47
2022-11-27T05:34:13.999Z,-1.45
2022-11-27T05:36:40.961Z,-1.50
2022-11-27T05:39:08.846Z,-1.54
2022-11-27T05:41:37.447Z,-1.53
2022-11-27T05:44:04.633Z,-1.57
2022-11-27T05:46:31.234Z,-1.56
2022-11-27T05:48:57.698Z,-1.59
2022-11-27T05:51:24.793Z,-1.65
2022-11-27T05:53:53.343Z,-1.70
2022-11-27T05:56:19.771Z,-1.73
2022-11-27T05:58:48.274Z,-1.73
2022-11-27T06:01:16.480Z,-1.72
2022-11-27T06:03:42.912Z,-1.72
2022-11-27T06:06:12.113Z,-1.76
2022-11-27T06:08:38.787Z,-1.77
2022-11-27T06:11:11.560Z,-1.80
2022-11-27T06:13:38.143Z,-1.82
2022-11-27T06:16:09.477Z,-1.90
2022-11-27T06:18:36.198Z,-1.89
2022-11-27T06:21:09.777Z,-1.89
2022-11-27T06:23:36.748Z,-1.92
2022-11-27T06:26:30.807Z,-1.89
2022-11-27T06:28:58.752Z,-1.91
2022-11-27T06:31:28.355Z,-1.87
2022-11-27T06:33:55.767Z,-1.85
2022-11-27T06:36:27.332Z,-1.86
2022-11-27T06:38:53.718Z,-1.91
2022-11-27T06:41:22.868Z,-1.90
2022-11-27T06:43:49.199Z,-1.90
2022-11-27T06:46:17.698Z,-1.96
2022-11-27T06:48:46.263Z,-1.94
2022-11-27T06:51:14.778Z,-1.92
2022-11-27T06:53:42.026Z,-1.90
2022-11-27T06:56:11.075Z,-1.89
2022-11-27T06:58:37.831Z,-1.90
2022-11-27T07:01:07.310Z,-1.90
2022-11-27T07:03:34.060Z,-1.85
2022-11-27T07:06:02.193Z,-1.82
2022-11-27T07:08:29.257Z,-1.79
2022-11-27T07:11:05.793Z,-1.71
2022-11-27T07:13:32.554Z,-1.70
2022-11-27T07:16:04.294Z,-1.70
2022-11-27T07:18:34.446Z,-1.67
2022-11-27T07:21:00.863Z,-1.62
2022-11-27T07:23:27.406Z,-1.61
2022-11-27T07:25:53.764Z,-1.59
2022-11-27T07:28:20.198Z,-1.59
2022-11-27T07:30:57.110Z,-1.59
2022-11-27T07:33:24.980Z,-1.59
2022-11-27T07:35:59.021Z,-1.52
2022-11-27T07:38:26.043Z,-1.42
2022-11-27T07:40:53.929Z,-1.40
2022-11-27T07:43:20.909Z,-1.40
2022-11-27T07:45:47.437Z,-1.33
2022-11-27T07:48:13.936Z,-1.28
2022-11-27T07:50:40.681Z,-1.23
2022-11-27T07:53:07.146Z,-1.18
2022-11-27T07:55:33.527Z,-1.12
2022-11-27T07:57:59.909Z,-1.01
2022-11-27T08:00:26.373Z,-0.89
2022-11-27T08:02:52.805Z,-0.73
2022-11-27T08:05:19.306Z,-0.53
2022-11-27T08:07:45.998Z,-0.27
2022-11-27T08:10:12.514Z,0.04
2022-11-27T08:12:38.909Z,0.24
2022-11-27T08:15:05.835Z,0.40
2022-11-27T08:17:32.275Z,0.55
2022-11-27T08:19:58.739Z,0.68
2022-11-27T08:22:25.143Z,0.81
2022-11-27T08:24:51.733Z,0.91
2022-11-27T08:27:18.558Z,1.01
2022-11-27T08:29:44.953Z,1.10
2022-11-27T08:32:11.393Z,1.18
2022-11-27T08:34:37.934Z,1.21
2022-11-27T08:37:05.723Z,1.27
2022-11-27T08:39:32.132Z,1.31
2022-11-27T08:41:58.617Z,1.41
2022-11-27T08:44:25.158Z,1.41
2022-11-27T08:46:51.737Z,1.47
2022-11-27T08:49:19.323Z,1.49
2022-11-27T08:51:45.738Z,1.50
2022-11-27T08:54:12.145Z,1.58
2022-11-27T08:56:38.569Z,1.66
2022-11-27T08:59:04.998Z,1.65
2022-11-27T09:01:32.469Z,1.73
2022-11-27T09:03:59.413Z,1.81
2022-11-27T09:06:33.409Z,1.79
2022-11-27T09:09:01.569Z,1.89
2022-11-27T09:11:31.618Z,1.96
2022-11-27T09:14:03.042Z,2.01
2022-11-27T09:16:32.627Z,2.06
2022-11-27T09:18:59.231Z,2.14
2022-11-27T09:21:27.320Z,2.24
2022-11-27T09:23:56.093Z,2.25
2022-11-27T09:26:23.862Z,2.23
2022-11-27T09:28:50.375Z,2.28
2022-11-27T09:31:17.207Z,2.22
2022-11-27T09:33:44.288Z,2.36
2022-11-27T09:36:16.970Z,2.40
2022-11-27T09:38:44.280Z,2.43
2022-11-27T09:41:10.594Z,2.41
2022-11-27T09:43:44.154Z,2.50
2022-11-27T09:46:17.993Z,2.55
2022-11-27T09:48:49.331Z,2.58
2022-11-27T09:51:29.121Z,2.56
2022-11-27T09:54:02.979Z,2.52
2022-11-27T09:56:32.254Z,2.60
2022-11-27T09:59:00.546Z,2.55
2022-11-27T10:01:42.025Z,2.53
2022-11-27T10:04:14.124Z,2.57
2022-11-27T10:06:59.168Z,2.72
2022-11-27T10:09:31.458Z,2.81
2022-11-27T10:12:30.214Z,2.72
2022-11-27T10:15:23.761Z,2.75
2022-11-27T10:18:00.579Z,2.80
2022-11-27T10:20:49.801Z,2.79
2022-11-27T10:23:28.254Z,2.79
2022-11-27T10:26:03.878Z,2.76
2022-11-27T10:28:40.303Z,2.86
2022-11-27T10:31:22.071Z,2.93
2022-11-27T10:33:53.736Z,2.93
2022-11-27T10:36:36.933Z,2.98
2022-11-27T10:39:06.753Z,3.00
2022-11-27T10:41:49.151Z,3.00
2022-11-27T10:44:47.873Z,3.04
2022-11-27T10:47:23.003Z,3.06
2022-11-27T10:49:49.550Z,3.04
2022-11-27T10:54:51.473Z,3.12
2022-11-27T10:57:30.146Z,3.09
2022-11-27T11:00:05.353Z,3.15
2022-11-27T11:02:38.629Z,3.15
2022-11-27T11:05:41.323Z,3.27
2022-11-27T11:08:17.327Z,3.25
2022-11-27T11:10:50.324Z,3.27
2022-11-27T11:13:27.815Z,3.16
2022-11-27T11:16:04.962Z,3.15
2022-11-27T11:18:42.577Z,3.17
2022-11-27T11:21:42.280Z,3.25
2022-11-27T11:24:25.678Z,3.26
2022-11-27T11:27:04.010Z,3.26
2022-11-27T11:30:01.688Z,3.30
2022-11-27T11:32:33.110Z,3.39
2022-11-27T11:35:03.606Z,3.44
2022-11-27T11:37:44.502Z,3.52
2022-11-27T11:40:16.303Z,3.58
2022-11-27T11:43:01.655Z,3.57
2022-11-27T11:45:32.816Z,3.60
2022-11-27T11:48:02.473Z,3.62
2022-11-27T11:50:53.686Z,3.70
2022-11-27T11:53:37.120Z,3.71
2022-11-27T11:56:03.711Z,3.73
2022-11-27T11:59:22.546Z,3.75
2022-11-27T12:02:06.263Z,3.85
2022-11-27T12:05:06.089Z,3.91
2022-11-27T12:07:51.989Z,3.93
2022-11-27T12:10:33.244Z,3.97
2022-11-27T12:13:38.762Z,3.87
2022-11-27T12:16:41.952Z,3.96
2022-11-27T12:19:30.677Z,4.02
2022-11-27T12:22:00.106Z,3.95
2022-11-27T12:25:02.783Z,3.79
2022-11-27T12:27:48.427Z,3.89
2022-11-27T12:30:18.523Z,3.83
2022-11-27T12:32:56.408Z,3.77
2022-11-27T12:35:32.233Z,3.73
2022-11-27T12:38:20.460Z,3.73
2022-11-27T12:40:46.735Z,3.70
2022-11-27T12:43:27.719Z,3.75
2022-11-27T12:46:22.518Z,3.84
2022-11-27T12:48:58.717Z,3.81
2022-11-27T12:51:34.017Z,3.86
2022-11-27T12:54:12.409Z,3.92
2022-11-27T12:56:48.475Z,3.90
2022-11-27T12:59:25.458Z,3.92
2022-11-27T13:02:10.279Z,3.91
2022-11-27T13:04:47.903Z,3.95
2022-11-27T13:07:23.129Z,3.96
2022-11-27T13:09:58.013Z,4.00
2022-11-27T13:12:27.037Z,3.99
2022-11-27T13:15:00.293Z,3.95
2022-11-27T13:17:33.964Z,3.98
2022-11-27T13:20:02.138Z,3.94
2022-11-27T13:22:32.555Z,3.91
2022-11-27T13:25:01.164Z,3.87
2022-11-27T13:27:31.708Z,3.89
2022-11-27T13:30:06.178Z,3.84
2022-11-27T13:32:49.795Z,3.97
2022-11-27T13:35:20.891Z,4.00
2022-11-27T13:37:49.789Z,3.96
2022-11-27T13:40:22.022Z,3.90
2022-11-27T13:42:53.253Z,3.88
2022-11-27T13:45:28.232Z,3.92
2022-11-27T13:47:56.943Z,3.82
2022-11-27T13:50:29.684Z,3.68
2022-11-27T13:53:06.248Z,3.72
2022-11-27T13:55:33.986Z,3.64
2022-11-27T13:58:01.470Z,3.69
2022-11-27T14:00:43.585Z,3.74
2022-11-27T14:03:30.261Z,3.75
2022-11-27T14:05:57.822Z,3.75
2022-11-27T14:08:31.759Z,3.71
2022-11-27T14:11:08.617Z,3.79
2022-11-27T14:13:42.230Z,3.72
2022-11-27T14:16:35.068Z,3.74
2022-11-27T14:19:04.653Z,3.73
2022-11-27T14:21:38.261Z,3.76
2022-11-27T14:24:24.689Z,3.81
2022-11-27T14:26:52.455Z,3.81
2022-11-27T14:29:21.500Z,3.80
2022-11-27T14:32:02.150Z,3.74
2022-11-27T14:34:33.654Z,3.74
2022-11-27T14:37:01.049Z,3.77
2022-11-27T14:39:36.902Z,3.71
2022-11-27T14:42:07.970Z,3.70
2022-11-27T14:44:35.173Z,3.68
2022-11-27T14:47:05.484Z,3.64
2022-11-27T14:49:33.758Z,3.66
2022-11-27T14:52:04.421Z,3.68
2022-11-27T14:54:35.302Z,3.67
2022-11-27T14:57:02.498Z,3.64
2022-11-27T14:59:28.967Z,3.71
2022-11-27T15:02:01.427Z,3.67
2022-11-27T15:04:34.785Z,3.59
2022-11-27T15:07:04.998Z,3.62
2022-11-27T15:09:34.223Z,3.60
2022-11-27T15:12:22.276Z,3.59
2022-11-27T15:15:09.788Z,3.54
2022-11-27T15:17:39.871Z,3.52
2022-11-27T15:20:15.696Z,3.60
2022-11-27T15:22:57.075Z,3.56
2022-11-27T15:25:36.134Z,3.53
2022-11-27T15:28:03.347Z,3.53
2022-11-27T15:30:29.889Z,3.48
2022-11-27T15:32:56.789Z,3.54
2022-11-27T15:35:28.269Z,3.47
2022-11-27T15:37:57.035Z,3.39
2022-11-27T15:40:39.095Z,3.40
2022-11-27T15:43:13.508Z,3.36
2022-11-27T15:45:40.961Z,3.35
2022-11-27T15:48:18.615Z,3.40
2022-11-27T15:50:58.776Z,3.39
2022-11-27T15:53:25.171Z,3.49
2022-11-27T15:55:51.569Z,3.44
2022-11-27T15:58:17.944Z,3.39
2022-11-27T16:00:44.397Z,3.38
2022-11-27T16:03:10.907Z,3.36
2022-11-27T16:05:37.335Z,3.32
2022-11-27T16:08:05.302Z,3.33
2022-11-27T16:10:31.838Z,3.34
2022-11-27T16:12:58.852Z,3.37
2022-11-27T16:15:30.073Z,3.32
2022-11-27T16:17:59.429Z,3.40
2022-11-27T16:20:26.687Z,3.40
2022-11-27T16:22:53.439Z,3.40
2022-11-27T16:25:19.916Z,3.31
2022-11-27T16:27:46.369Z,3.27
2022-11-27T16:30:13.282Z,3.25
2022-11-27T16:32:40.227Z,3.26
2022-11-27T16:35:07.501Z,3.31
2022-11-27T16:37:33.926Z,3.28
2022-11-27T16:40:00.319Z,3.29
2022-11-27T16:42:26.739Z,3.29
2022-11-27T16:44:53.170Z,3.33
2022-11-27T16:47:19.555Z,3.31
2022-11-27T16:49:48.766Z,3.23
2022-11-27T16:52:15.769Z,3.18
2022-11-27T16:54:42.419Z,3.19
2022-11-27T16:57:09.053Z,3.22
2022-11-27T16:59:38.198Z,3.18
2022-11-27T17:02:05.450Z,3.20
2022-11-27T17:04:32.107Z,3.22
2022-11-27T17:07:00.032Z,3.23
2022-11-27T17:09:29.256Z,3.18
2022-11-27T17:11:55.889Z,3.20
2022-11-27T17:14:22.297Z,3.17
2022-11-27T17:16:49.000Z,3.17
2022-11-27T17:19:15.770Z,3.19
2022-11-27T17:21:42.579Z,3.19
2022-11-27T17:24:16.102Z,3.20
2022-11-27T17:26:43.948Z,3.23
2022-11-27T17:29:12.851Z,3.24
2022-11-27T17:31:39.766Z,3.26
2022-11-27T17:34:07.737Z,3.24
2022-11-27T17:36:37.408Z,3.24
2022-11-27T17:39:05.704Z,3.24
2022-11-27T17:41:32.430Z,3.26
2022-11-27T17:43:59.066Z,3.27
2022-11-27T17:46:27.996Z,3.26
2022-11-27T17:48:55.474Z,3.27
2022-11-27T17:51:22.078Z,3.26
2022-11-27T17:53:48.768Z,3.21
2022-11-27T17:56:17.851Z,3.24
2022-11-27T17:58:44.499Z,3.24
2022-11-27T18:01:30.095Z,3.25
2022-11-27T18:04:00.402Z,3.20
2022-11-27T18:06:26.894Z,3.14
2022-11-27T18:08:55.592Z,3.15
2022-11-27T18:11:25.979Z,3.12
2022-11-27T18:13:52.446Z,3.08
2022-11-27T18:16:34.687Z,3.06
2022-11-27T18:19:05.123Z,3.05
2022-11-27T18:21:31.817Z,3.04
2022-11-27T18:29:32.876Z,3.04
2022-11-27T18:31:59.329Z,2.96
2022-11-27T18:34:25.903Z,2.97
2022-11-27T18:36:57.140Z,2.97
2022-11-27T18:39:23.602Z,2.90
2022-11-27T18:41:50.137Z,2.92
2022-11-27T18:44:16.670Z,2.91
2022-11-27T18:46:43.159Z,2.88
2022-11-27T18:49:09.593Z,2.85
2022-11-27T18:51:36.008Z,2.83
2022-11-27T18:54:02.404Z,2.84
2022-11-27T18:56:31.176Z,2.85
2022-11-27T18:59:02.954Z,2.84
2022-11-27T19:01:35.439Z,2.89
2022-11-27T19:04:05.147Z,2.97
2022-11-27T19:06:31.558Z,2.94
2022-11-27T19:08:58.986Z,2.91
2022-11-27T19:11:28.491Z,2.84
2022-11-27T19:13:55.946Z,2.93
2022-11-27T19:16:31.581Z,2.93
2022-11-27T19:18:59.793Z,2.86
2022-11-27T19:21:28.477Z,2.76
2022-11-27T19:23:56.450Z,2.72
2022-11-27T19:26:25.946Z,2.70
2022-11-27T19:28:55.201Z,2.70
2022-11-27T19:31:23.168Z,2.69
2022-11-27T19:34:00.609Z,2.71
2022-11-27T19:36:31.127Z,2.70
2022-11-27T19:39:00.940Z,2.70
2022-11-27T19:41:27.829Z,2.74
2022-11-27T19:43:54.541Z,2.67
2022-11-27T19:46:26.938Z,2.68
2022-11-27T19:48:59.186Z,2.62
2022-11-27T19:51:27.229Z,2.62
2022-11-27T19:53:54.098Z,2.61
2022-11-27T19:56:20.698Z,2.62
2022-11-27T19:58:47.112Z,2.62
2022-11-27T20:01:16.592Z,2.63
2022-11-27T20:03:44.184Z,2.61
2022-11-27T20:06:18.947Z,2.61
2022-11-27T20:08:47.315Z,2.61
2022-11-27T20:11:16.212Z,2.58
2022-11-27T20:13:42.831Z,2.58
2022-11-27T20:16:11.500Z,2.54
2022-11-27T20:18:38.507Z,2.54
2022-11-27T20:21:11.313Z,2.56
2022-11-27T20:23:39.295Z,2.54
2022-11-27T20:26:12.739Z,2.56
2022-11-27T20:28:41.271Z,2.58
2022-11-27T20:31:14.083Z,2.54
2022-11-27T20:33:40.580Z,2.56
2022-11-27T20:36:12.144Z,2.59
2022-11-27T20:38:39.261Z,2.58
2022-11-27T20:41:10.545Z,2.58
2022-11-27T20:43:37.826Z,2.57
2022-11-27T20:46:05.104Z,2.55
2022-11-27T20:48:31.936Z,2.58
2022-11-27T20:51:15.311Z,2.54
2022-11-27T20:53:43.525Z,2.54
2022-11-27T20:56:11.578Z,2.53
2022-11-27T20:58:40.414Z,2.60
2022-11-27T21:01:13.817Z,2.59
2022-11-27T21:03:40.909Z,2.57
2022-11-27T21:06:07.758Z,2.52
2022-11-27T21:08:34.423Z,2.52
2022-11-27T21:11:16.771Z,2.55
2022-11-27T21:13:43.201Z,2.53
2022-11-27T21:16:11.490Z,2.56
2022-11-27T21:18:38.988Z,2.64
2022-11-27T21:21:07.784Z,2.59
2022-11-27T21:23:34.692Z,2.60
2022-11-27T21:26:01.212Z,2.58
2022-11-27T21:28:27.617Z,2.52
2022-11-27T21:30:54.038Z,2.52
2022-11-27T21:33:20.467Z,2.54
2022-11-27T21:35:46.886Z,2.53
2022-11-27T21:38:13.363Z,2.52
2022-11-27T21:40:39.745Z,2.51
2022-11-27T21:43:06.140Z,2.52
2022-11-27T21:45:32.559Z,2.53
2022-11-27T21:47:59.025Z,2.55
2022-11-27T21:50:25.568Z,2.54
2022-11-27T21:52:52.410Z,2.53
2022-11-27T21:55:21.801Z,2.55
2022-11-27T21:57:48.243Z,2.54
2022-11-27T22:00:14.856Z,2.56
2022-11-27T22:02:43.804Z,2.57
2022-11-27T22:05:10.317Z,2.57
2022-11-27T22:07:36.743Z,2.58
2022-11-27T22:10:03.571Z,2.61
2022-11-27T22:12:29.965Z,2.62
2022-11-27T22:14:57.514Z,2.67
2022-11-27T22:17:24.494Z,2.65
2022-11-27T22:19:50.951Z,2.61
2022-11-27T22:22:17.477Z,2.60
2022-11-27T22:24:44.241Z,2.62
2022-11-27T22:27:10.865Z,2.56
2022-11-27T22:29:37.242Z,2.58
2022-11-27T22:32:03.654Z,2.56
2022-11-27T22:34:30.043Z,2.60
2022-11-27T22:36:56.466Z,2.59
2022-11-27T22:39:22.824Z,2.67
2022-11-27T22:41:49.191Z,2.63
2022-11-27T22:44:20.829Z,2.59
2022-11-27T22:46:47.620Z,2.65
2022-11-27T22:49:16.656Z,2.65
2022-11-27T22:51:43.226Z,2.60
2022-11-27T22:54:13.426Z,2.61
2022-11-27T22:56:39.965Z,2.65
2022-11-27T22:59:31.119Z,2.64
2022-11-27T23:01:54.085Z,2.61
2022-11-27T23:04:20.498Z,2.62
2022-11-27T23:06:48.451Z,2.63
2022-11-27T23:09:17.782Z,2.63
2022-11-27T23:11:46.562Z,2.67
2022-11-27T23:14:13.208Z,2.66
2022-11-27T23:16:40.002Z,2.62
2022-11-27T23:19:06.923Z,2.62
2022-11-27T23:21:37.258Z,2.66
2022-11-27T23:24:04.901Z,2.61
2022-11-27T23:26:32.174Z,2.64
2022-11-27T23:28:58.582Z,2.70
2022-11-27T23:31:30.842Z,2.69
2022-11-27T23:34:01.189Z,2.71
2022-11-27T23:36:28.141Z,2.68
2022-11-27T23:38:54.533Z,2.67
2022-11-27T23:41:24.113Z,2.76
2022-11-27T23:43:51.645Z,2.67
2022-11-27T23:46:20.381Z,2.65
2022-11-27T23:48:46.903Z,2.63
2022-11-27T23:51:15.874Z,2.67
2022-11-27T23:53:42.190Z,2.73
2022-11-27T23:56:29.476Z,2.70
2022-11-27T23:58:57.126Z,2.70
